sensor_id;sensor_type;location;lat;lon;timestamp;P1;durP1;ratioP1;P2;durP2;ratioP2
56233;SDS011;42141;53.240;6.580;2022-11-04T00:01:32;14.10;;;11.23;;
56233;SDS011;42141;53.240;6.580;2022-11-04T00:03:59;15.98;;;11.20;;
56233;SDS011;42141;53.240;6.580;2022-11-04T00:06:25;17.30;;;11.43;;
56233;SDS011;42141;53.240;6.580;2022-11-04T00:08:51;14.25;;;10.90;;
56233;SDS011;42141;53.240;6.580;2022-11-04T00:11:18;16.88;;;11.00;;
56233;SDS011;42141;53.240;6.580;2022-11-04T00:14:04;16.00;;;10.90;;
56233;SDS011;42141;53.240;6.580;2022-11-04T00:16:31;16.58;;;10.48;;
56233;SDS011;42141;53.240;6.580;2022-11-04T00:19:16;14.90;;;11.13;;
56233;SDS011;42141;53.240;6.580;2022-11-04T00:21:41;15.75;;;11.50;;
56233;SDS011;42141;53.240;6.580;2022-11-04T00:24:26;13.77;;;10.70;;
56233;SDS011;42141;53.240;6.580;2022-11-04T00:27:07;13.45;;;10.57;;
56233;SDS011;42141;53.240;6.580;2022-11-04T00:29:52;13.88;;;10.85;;
56233;SDS011;42141;53.240;6.580;2022-11-04T00:32:18;14.23;;;10.05;;
56233;SDS011;42141;53.240;6.580;2022-11-04T00:35:02;12.63;;;8.90;;
56233;SDS011;42141;53.240;6.580;2022-11-04T00:37:27;11.15;;;9.95;;
56233;SDS011;42141;53.240;6.580;2022-11-04T00:39:53;13.75;;;9.60;;
56233;SDS011;42141;53.240;6.580;2022-11-04T00:42:19;14.60;;;8.98;;
56233;SDS011;42141;53.240;6.580;2022-11-04T00:44:44;9.82;;;7.30;;
56233;SDS011;42141;53.240;6.580;2022-11-04T00:47:10;9.05;;;7.32;;
56233;SDS011;42141;53.240;6.580;2022-11-04T00:49:36;7.88;;;5.65;;
56233;SDS011;42141;53.240;6.580;2022-11-04T00:52:01;4.65;;;3.47;;
56233;SDS011;42141;53.240;6.580;2022-11-04T00:54:27;5.85;;;3.25;;
56233;SDS011;42141;53.240;6.580;2022-11-04T00:56:53;6.40;;;3.00;;
56233;SDS011;42141;53.240;6.580;2022-11-04T00:59:19;4.93;;;1.85;;
56233;SDS011;42141;53.240;6.580;2022-11-04T01:01:44;2.90;;;1.45;;
56233;SDS011;42141;53.240;6.580;2022-11-04T01:04:10;2.17;;;1.05;;
56233;SDS011;42141;53.240;6.580;2022-11-04T01:06:36;1.33;;;0.95;;
56233;SDS011;42141;53.240;6.580;2022-11-04T01:09:03;1.10;;;0.60;;
56233;SDS011;42141;53.240;6.580;2022-11-04T01:11:32;1.33;;;0.38;;
56233;SDS011;42141;53.240;6.580;2022-11-04T01:13:59;0.40;;;0.40;;
56233;SDS011;42141;53.240;6.580;2022-11-04T01:16:24;2.83;;;1.10;;
56233;SDS011;42141;53.240;6.580;2022-11-04T01:18:51;2.15;;;0.55;;
56233;SDS011;42141;53.240;6.580;2022-11-04T01:21:17;3.10;;;0.20;;
56233;SDS011;42141;53.240;6.580;2022-11-04T01:23:43;3.05;;;0.22;;
56233;SDS011;42141;53.240;6.580;2022-11-04T01:26:14;1.23;;;0.20;;
56233;SDS011;42141;53.240;6.580;2022-11-04T01:28:41;1.65;;;0.22;;
56233;SDS011;42141;53.240;6.580;2022-11-04T01:31:08;0.50;;;0.10;;
56233;SDS011;42141;53.240;6.580;2022-11-04T01:33:35;3.55;;;0.20;;
56233;SDS011;42141;53.240;6.580;2022-11-04T01:36:02;3.00;;;0.30;;
56233;SDS011;42141;53.240;6.580;2022-11-04T01:38:29;3.47;;;2.15;;
56233;SDS011;42141;53.240;6.580;2022-11-04T01:40:55;1.75;;;0.10;;
56233;SDS011;42141;53.240;6.580;2022-11-04T01:43:21;3.13;;;0.32;;
56233;SDS011;42141;53.240;6.580;2022-11-04T01:45:48;1.45;;;0.63;;
56233;SDS011;42141;53.240;6.580;2022-11-04T01:50:49;1.90;;;0.47;;
56233;SDS011;42141;53.240;6.580;2022-11-04T01:53:18;3.38;;;0.45;;
56233;SDS011;42141;53.240;6.580;2022-11-04T01:56:01;2.90;;;1.15;;
56233;SDS011;42141;53.240;6.580;2022-11-04T01:58:36;4.03;;;0.40;;
56233;SDS011;42141;53.240;6.580;2022-11-04T02:01:05;2.33;;;0.25;;
56233;SDS011;42141;53.240;6.580;2022-11-04T02:03:37;1.60;;;0.50;;
56233;SDS011;42141;53.240;6.580;2022-11-04T02:06:07;3.80;;;0.32;;
56233;SDS011;42141;53.240;6.580;2022-11-04T02:08:36;3.38;;;0.40;;
56233;SDS011;42141;53.240;6.580;2022-11-04T02:11:03;4.03;;;0.25;;
56233;SDS011;42141;53.240;6.580;2022-11-04T02:13:30;3.53;;;0.20;;
56233;SDS011;42141;53.240;6.580;2022-11-04T02:16:20;2.42;;;0.38;;
56233;SDS011;42141;53.240;6.580;2022-11-04T02:26:40;3.97;;;0.60;;
56233;SDS011;42141;53.240;6.580;2022-11-04T02:29:29;3.17;;;0.35;;
56233;SDS011;42141;53.240;6.580;2022-11-04T02:34:54;4.07;;;0.47;;
56233;SDS011;42141;53.240;6.580;2022-11-04T02:43:15;6.05;;;0.45;;
56233;SDS011;42141;53.240;6.580;2022-11-04T02:46:12;2.88;;;0.55;;
56233;SDS011;42141;53.240;6.580;2022-11-04T02:48:51;4.35;;;0.73;;
56233;SDS011;42141;53.240;6.580;2022-11-04T02:51:36;6.82;;;0.85;;
56233;SDS011;42141;53.240;6.580;2022-11-04T02:54:42;7.13;;;0.60;;
56233;SDS011;42141;53.240;6.580;2022-11-04T02:57:02;8.52;;;0.73;;
56233;SDS011;42141;53.240;6.580;2022-11-04T02:59:38;3.78;;;0.50;;
56233;SDS011;42141;53.240;6.580;2022-11-04T03:02:16;5.80;;;1.40;;
56233;SDS011;42141;53.240;6.580;2022-11-04T03:07:18;5.80;;;0.60;;
56233;SDS011;42141;53.240;6.580;2022-11-04T03:09:52;2.88;;;0.30;;
56233;SDS011;42141;53.240;6.580;2022-11-04T03:12:26;6.70;;;0.52;;
56233;SDS011;42141;53.240;6.580;2022-11-04T03:15:00;4.85;;;0.73;;
56233;SDS011;42141;53.240;6.580;2022-11-04T03:18:06;5.57;;;0.55;;
56233;SDS011;42141;53.240;6.580;2022-11-04T03:20:31;6.55;;;0.30;;
56233;SDS011;42141;53.240;6.580;2022-11-04T03:23:00;6.97;;;0.43;;
56233;SDS011;42141;53.240;6.580;2022-11-04T03:25:29;8.27;;;1.05;;
56233;SDS011;42141;53.240;6.580;2022-11-04T03:33:50;5.57;;;0.45;;
56233;SDS011;42141;53.240;6.580;2022-11-04T03:36:22;2.83;;;0.20;;
56233;SDS011;42141;53.240;6.580;2022-11-04T03:38:48;3.60;;;0.52;;
56233;SDS011;42141;53.240;6.580;2022-11-04T03:41:22;8.10;;;1.33;;
56233;SDS011;42141;53.240;6.580;2022-11-04T03:43:56;7.70;;;0.75;;
56233;SDS011;42141;53.240;6.580;2022-11-04T03:46:21;11.35;;;0.73;;
56233;SDS011;42141;53.240;6.580;2022-11-04T03:48:50;9.27;;;0.73;;
56233;SDS011;42141;53.240;6.580;2022-11-04T03:51:17;4.78;;;0.32;;
56233;SDS011;42141;53.240;6.580;2022-11-04T03:53:42;6.45;;;0.60;;
56233;SDS011;42141;53.240;6.580;2022-11-04T03:59:09;3.30;;;0.40;;
56233;SDS011;42141;53.240;6.580;2022-11-04T04:04:32;7.15;;;0.57;;
56233;SDS011;42141;53.240;6.580;2022-11-04T04:07:11;8.30;;;0.80;;
56233;SDS011;42141;53.240;6.580;2022-11-04T04:10:00;4.70;;;0.40;;
56233;SDS011;42141;53.240;6.580;2022-11-04T04:12:50;6.80;;;0.80;;
56233;SDS011;42141;53.240;6.580;2022-11-04T04:15:23;7.97;;;0.60;;
56233;SDS011;42141;53.240;6.580;2022-11-04T04:17:58;3.35;;;0.60;;
56233;SDS011;42141;53.240;6.580;2022-11-04T04:20:30;0.80;;;0.20;;
56233;SDS011;42141;53.240;6.580;2022-11-04T04:23:05;2.50;;;0.40;;
56233;SDS011;42141;53.240;6.580;2022-11-04T04:25:53;2.35;;;0.25;;
56233;SDS011;42141;53.240;6.580;2022-11-04T04:28:43;6.05;;;0.55;;
56233;SDS011;42141;53.240;6.580;2022-11-04T04:31:11;6.60;;;0.40;;
56233;SDS011;42141;53.240;6.580;2022-11-04T04:34:00;9.23;;;0.52;;
56233;SDS011;42141;53.240;6.580;2022-11-04T04:36:27;4.47;;;0.45;;
56233;SDS011;42141;53.240;6.580;2022-11-04T04:38:55;2.63;;;0.30;;
56233;SDS011;42141;53.240;6.580;2022-11-04T04:41:40;4.43;;;0.38;;
56233;SDS011;42141;53.240;6.580;2022-11-04T04:44:25;1.13;;;0.20;;
56233;SDS011;42141;53.240;6.580;2022-11-04T04:47:53;1.75;;;0.28;;
56233;SDS011;42141;53.240;6.580;2022-11-04T04:50:05;5.68;;;0.47;;
56233;SDS011;42141;53.240;6.580;2022-11-04T04:52:33;4.13;;;1.00;;
56233;SDS011;42141;53.240;6.580;2022-11-04T04:55:02;2.38;;;0.50;;
56233;SDS011;42141;53.240;6.580;2022-11-04T04:57:28;12.73;;;0.80;;
56233;SDS011;42141;53.240;6.580;2022-11-04T04:59:54;4.55;;;0.38;;
56233;SDS011;42141;53.240;6.580;2022-11-04T05:02:20;1.92;;;0.45;;
56233;SDS011;42141;53.240;6.580;2022-11-04T05:04:46;4.78;;;1.20;;
56233;SDS011;42141;53.240;6.580;2022-11-04T05:07:14;1.90;;;1.08;;
56233;SDS011;42141;53.240;6.580;2022-11-04T05:09:40;1.65;;;1.10;;
56233;SDS011;42141;53.240;6.580;2022-11-04T05:12:06;2.25;;;1.35;;
56233;SDS011;42141;53.240;6.580;2022-11-04T05:14:37;4.97;;;1.38;;
56233;SDS011;42141;53.240;6.580;2022-11-04T05:17:09;4.13;;;1.70;;
56233;SDS011;42141;53.240;6.580;2022-11-04T05:19:35;3.30;;;1.60;;
56233;SDS011;42141;53.240;6.580;2022-11-04T05:22:01;1.90;;;1.25;;
56233;SDS011;42141;53.240;6.580;2022-11-04T05:24:27;6.60;;;1.80;;
56233;SDS011;42141;53.240;6.580;2022-11-04T05:26:53;8.77;;;1.75;;
56233;SDS011;42141;53.240;6.580;2022-11-04T05:29:19;4.15;;;1.48;;
56233;SDS011;42141;53.240;6.580;2022-11-04T05:31:44;7.60;;;1.60;;
56233;SDS011;42141;53.240;6.580;2022-11-04T05:34:11;3.47;;;1.48;;
56233;SDS011;42141;53.240;6.580;2022-11-04T05:36:38;5.28;;;1.58;;
56233;SDS011;42141;53.240;6.580;2022-11-04T05:39:04;5.32;;;1.90;;
56233;SDS011;42141;53.240;6.580;2022-11-04T05:41:31;3.33;;;1.80;;
56233;SDS011;42141;53.240;6.580;2022-11-04T05:43:58;6.78;;;1.70;;
56233;SDS011;42141;53.240;6.580;2022-11-04T05:46:26;4.65;;;1.60;;
56233;SDS011;42141;53.240;6.580;2022-11-04T05:48:52;6.88;;;1.77;;
56233;SDS011;42141;53.240;6.580;2022-11-04T05:51:20;5.28;;;1.52;;
56233;SDS011;42141;53.240;6.580;2022-11-04T05:53:49;6.90;;;1.25;;
56233;SDS011;42141;53.240;6.580;2022-11-04T05:56:14;2.35;;;0.73;;
56233;SDS011;42141;53.240;6.580;2022-11-04T05:58:40;2.40;;;0.65;;
56233;SDS011;42141;53.240;6.580;2022-11-04T06:01:10;3.03;;;0.63;;
56233;SDS011;42141;53.240;6.580;2022-11-04T06:03:48;1.88;;;0.50;;
56233;SDS011;42141;53.240;6.580;2022-11-04T06:06:14;4.40;;;0.88;;
56233;SDS011;42141;53.240;6.580;2022-11-04T06:08:40;3.28;;;0.65;;
56233;SDS011;42141;53.240;6.580;2022-11-04T06:11:06;4.18;;;0.90;;
56233;SDS011;42141;53.240;6.580;2022-11-04T06:13:31;3.25;;;1.50;;
56233;SDS011;42141;53.240;6.580;2022-11-04T06:15:57;7.68;;;1.75;;
56233;SDS011;42141;53.240;6.580;2022-11-04T06:18:23;5.90;;;2.10;;
56233;SDS011;42141;53.240;6.580;2022-11-04T06:20:48;2.78;;;1.85;;
56233;SDS011;42141;53.240;6.580;2022-11-04T06:23:16;6.28;;;1.75;;
56233;SDS011;42141;53.240;6.580;2022-11-04T06:25:41;4.15;;;1.50;;
56233;SDS011;42141;53.240;6.580;2022-11-04T06:28:07;7.72;;;1.70;;
56233;SDS011;42141;53.240;6.580;2022-11-04T06:30:32;4.65;;;1.10;;
56233;SDS011;42141;53.240;6.580;2022-11-04T06:32:58;3.05;;;0.95;;
56233;SDS011;42141;53.240;6.580;2022-11-04T06:35:24;4.43;;;0.77;;
56233;SDS011;42141;53.240;6.580;2022-11-04T06:37:49;4.95;;;0.50;;
56233;SDS011;42141;53.240;6.580;2022-11-04T06:40:15;4.68;;;2.20;;
56233;SDS011;42141;53.240;6.580;2022-11-04T06:42:41;4.70;;;0.80;;
56233;SDS011;42141;53.240;6.580;2022-11-04T06:45:09;2.05;;;0.40;;
56233;SDS011;42141;53.240;6.580;2022-11-04T06:47:36;8.38;;;0.68;;
56233;SDS011;42141;53.240;6.580;2022-11-04T06:50:01;3.70;;;0.30;;
56233;SDS011;42141;53.240;6.580;2022-11-04T06:52:27;5.78;;;0.57;;
56233;SDS011;42141;53.240;6.580;2022-11-04T06:54:56;1.00;;;0.47;;
56233;SDS011;42141;53.240;6.580;2022-11-04T06:57:21;4.80;;;0.70;;
56233;SDS011;42141;53.240;6.580;2022-11-04T06:59:47;4.55;;;0.65;;
56233;SDS011;42141;53.240;6.580;2022-11-04T07:02:13;2.35;;;0.50;;
56233;SDS011;42141;53.240;6.580;2022-11-04T07:04:38;5.70;;;0.70;;
56233;SDS011;42141;53.240;6.580;2022-11-04T07:07:04;3.63;;;0.80;;
56233;SDS011;42141;53.240;6.580;2022-11-04T07:09:30;5.60;;;1.15;;
56233;SDS011;42141;53.240;6.580;2022-11-04T07:11:55;3.60;;;0.90;;
56233;SDS011;42141;53.240;6.580;2022-11-04T07:14:21;12.50;;;1.02;;
56233;SDS011;42141;53.240;6.580;2022-11-04T07:16:50;5.30;;;0.90;;
56233;SDS011;42141;53.240;6.580;2022-11-04T07:19:16;5.18;;;0.70;;
56233;SDS011;42141;53.240;6.580;2022-11-04T07:21:41;2.60;;;0.75;;
56233;SDS011;42141;53.240;6.580;2022-11-04T07:24:07;3.92;;;0.93;;
56233;SDS011;42141;53.240;6.580;2022-11-04T07:26:33;6.07;;;0.90;;
56233;SDS011;42141;53.240;6.580;2022-11-04T07:28:58;2.50;;;0.82;;
56233;SDS011;42141;53.240;6.580;2022-11-04T07:31:25;1.30;;;0.50;;
56233;SDS011;42141;53.240;6.580;2022-11-04T07:33:52;4.75;;;0.80;;
56233;SDS011;42141;53.240;6.580;2022-11-04T07:36:18;7.65;;;1.00;;
56233;SDS011;42141;53.240;6.580;2022-11-04T07:38:44;4.07;;;1.20;;
56233;SDS011;42141;53.240;6.580;2022-11-04T07:41:10;1.30;;;0.30;;
56233;SDS011;42141;53.240;6.580;2022-11-04T07:43:37;3.78;;;0.70;;
56233;SDS011;42141;53.240;6.580;2022-11-04T07:46:03;1.73;;;0.50;;
56233;SDS011;42141;53.240;6.580;2022-11-04T07:48:32;4.97;;;0.73;;
56233;SDS011;42141;53.240;6.580;2022-11-04T07:50:58;8.63;;;0.82;;
56233;SDS011;42141;53.240;6.580;2022-11-04T07:53:25;6.38;;;0.95;;
56233;SDS011;42141;53.240;6.580;2022-11-04T07:55:53;1.52;;;0.47;;
56233;SDS011;42141;53.240;6.580;2022-11-04T07:58:19;15.57;;;1.42;;
56233;SDS011;42141;53.240;6.580;2022-11-04T08:00:45;8.38;;;0.90;;
56233;SDS011;42141;53.240;6.580;2022-11-04T08:03:11;6.70;;;2.95;;
56233;SDS011;42141;53.240;6.580;2022-11-04T08:05:37;2.95;;;0.82;;
56233;SDS011;42141;53.240;6.580;2022-11-04T08:08:03;24.92;;;2.65;;
56233;SDS011;42141;53.240;6.580;2022-11-04T08:10:32;6.25;;;0.88;;
56233;SDS011;42141;53.240;6.580;2022-11-04T08:12:58;19.83;;;2.38;;
56233;SDS011;42141;53.240;6.580;2022-11-04T08:15:24;8.60;;;1.20;;
56233;SDS011;42141;53.240;6.580;2022-11-04T08:17:49;7.80;;;1.33;;
56233;SDS011;42141;53.240;6.580;2022-11-04T08:20:15;3.65;;;1.10;;
56233;SDS011;42141;53.240;6.580;2022-11-04T08:22:42;2.85;;;0.70;;
56233;SDS011;42141;53.240;6.580;2022-11-04T08:25:08;5.85;;;1.55;;
56233;SDS011;42141;53.240;6.580;2022-11-04T08:27:37;6.40;;;0.80;;
56233;SDS011;42141;53.240;6.580;2022-11-04T08:30:03;4.63;;;0.75;;
56233;SDS011;42141;53.240;6.580;2022-11-04T08:32:29;3.42;;;1.17;;
56233;SDS011;42141;53.240;6.580;2022-11-04T08:34:55;3.42;;;1.30;;
56233;SDS011;42141;53.240;6.580;2022-11-04T08:37:21;6.15;;;1.10;;
56233;SDS011;42141;53.240;6.580;2022-11-04T08:39:47;3.45;;;0.75;;
56233;SDS011;42141;53.240;6.580;2022-11-04T08:42:13;8.98;;;1.38;;
56233;SDS011;42141;53.240;6.580;2022-11-04T08:44:39;5.60;;;2.33;;
56233;SDS011;42141;53.240;6.580;2022-11-04T08:47:05;8.20;;;1.20;;
56233;SDS011;42141;53.240;6.580;2022-11-04T08:49:35;1.92;;;1.08;;
56233;SDS011;42141;53.240;6.580;2022-11-04T08:52:02;2.83;;;0.75;;
56233;SDS011;42141;53.240;6.580;2022-11-04T08:54:28;2.42;;;0.65;;
56233;SDS011;42141;53.240;6.580;2022-11-04T08:56:53;7.63;;;1.77;;
56233;SDS011;42141;53.240;6.580;2022-11-04T08:59:19;7.60;;;0.88;;
56233;SDS011;42141;53.240;6.580;2022-11-04T09:01:45;4.68;;;0.60;;
56233;SDS011;42141;53.240;6.580;2022-11-04T09:04:11;5.50;;;0.90;;
56233;SDS011;42141;53.240;6.580;2022-11-04T09:06:38;2.10;;;0.57;;
56233;SDS011;42141;53.240;6.580;2022-11-04T09:09:07;2.90;;;0.60;;
56233;SDS011;42141;53.240;6.580;2022-11-04T09:11:36;2.80;;;0.50;;
56233;SDS011;42141;53.240;6.580;2022-11-04T09:14:04;5.03;;;1.45;;
56233;SDS011;42141;53.240;6.580;2022-11-04T09:16:30;2.65;;;0.50;;
56233;SDS011;42141;53.240;6.580;2022-11-04T09:18:58;4.57;;;0.47;;
56233;SDS011;42141;53.240;6.580;2022-11-04T09:21:24;8.07;;;0.55;;
56233;SDS011;42141;53.240;6.580;2022-11-04T09:23:51;2.22;;;0.40;;
56233;SDS011;42141;53.240;6.580;2022-11-04T09:26:17;4.65;;;0.73;;
56233;SDS011;42141;53.240;6.580;2022-11-04T09:28:43;4.18;;;0.55;;
56233;SDS011;42141;53.240;6.580;2022-11-04T09:31:10;3.83;;;0.68;;
56233;SDS011;42141;53.240;6.580;2022-11-04T09:33:38;3.30;;;1.00;;
56233;SDS011;42141;53.240;6.580;2022-11-04T09:36:04;4.10;;;0.40;;
56233;SDS011;42141;53.240;6.580;2022-11-04T09:38:30;6.00;;;0.60;;
56233;SDS011;42141;53.240;6.580;2022-11-04T09:40:56;7.32;;;0.70;;
56233;SDS011;42141;53.240;6.580;2022-11-04T09:43:27;8.45;;;0.93;;
56233;SDS011;42141;53.240;6.580;2022-11-04T09:46:07;1.90;;;0.50;;
56233;SDS011;42141;53.240;6.580;2022-11-04T09:49:10;4.72;;;0.80;;
56233;SDS011;42141;53.240;6.580;2022-11-04T09:51:30;5.00;;;0.40;;
56233;SDS011;42141;53.240;6.580;2022-11-04T09:54:00;4.85;;;0.70;;
56233;SDS011;42141;53.240;6.580;2022-11-04T09:56:34;9.88;;;0.95;;
56233;SDS011;42141;53.240;6.580;2022-11-04T09:59:03;3.20;;;0.52;;
56233;SDS011;42141;53.240;6.580;2022-11-04T10:07:20;4.43;;;0.60;;
56233;SDS011;42141;53.240;6.580;2022-11-04T10:12:21;13.82;;;2.00;;
56233;SDS011;42141;53.240;6.580;2022-11-04T10:15:06;29.77;;;2.47;;
56233;SDS011;42141;53.240;6.580;2022-11-04T10:17:46;6.32;;;1.27;;
56233;SDS011;42141;53.240;6.580;2022-11-04T10:20:27;6.82;;;1.88;;
56233;SDS011;42141;53.240;6.580;2022-11-04T10:23:21;4.50;;;0.75;;
56233;SDS011;42141;53.240;6.580;2022-11-04T10:28:28;2.65;;;0.77;;
56233;SDS011;42141;53.240;6.580;2022-11-04T10:30:57;2.42;;;0.52;;
56233;SDS011;42141;53.240;6.580;2022-11-04T10:33:31;5.15;;;1.15;;
56233;SDS011;42141;53.240;6.580;2022-11-04T10:36:00;3.53;;;0.40;;
56233;SDS011;42141;53.240;6.580;2022-11-04T10:40:58;5.32;;;0.60;;
56233;SDS011;42141;53.240;6.580;2022-11-04T10:43:30;4.68;;;1.00;;
56233;SDS011;42141;53.240;6.580;2022-11-04T10:49:13;17.45;;;1.40;;
56233;SDS011;42141;53.240;6.580;2022-11-04T10:51:54;42.65;;;4.07;;
56233;SDS011;42141;53.240;6.580;2022-11-04T10:54:21;8.10;;;0.77;;
56233;SDS011;42141;53.240;6.580;2022-11-04T10:56:52;8.98;;;1.85;;
56233;SDS011;42141;53.240;6.580;2022-11-04T10:59:30;7.63;;;1.75;;
56233;SDS011;42141;53.240;6.580;2022-11-04T11:07:47;9.05;;;1.52;;
56233;SDS011;42141;53.240;6.580;2022-11-04T11:10:19;6.90;;;0.60;;
56233;SDS011;42141;53.240;6.580;2022-11-04T11:12:53;8.15;;;0.90;;
56233;SDS011;42141;53.240;6.580;2022-11-04T11:20:49;8.20;;;0.93;;
56233;SDS011;42141;53.240;6.580;2022-11-04T11:23:39;4.55;;;0.70;;
56233;SDS011;42141;53.240;6.580;2022-11-04T11:26:15;7.15;;;0.80;;
56233;SDS011;42141;53.240;6.580;2022-11-04T11:28:52;26.10;;;1.85;;
56233;SDS011;42141;53.240;6.580;2022-11-04T11:31:35;18.05;;;2.03;;
56233;SDS011;42141;53.240;6.580;2022-11-04T11:34:06;27.80;;;2.65;;
56233;SDS011;42141;53.240;6.580;2022-11-04T11:39:24;6.70;;;0.85;;
56233;SDS011;42141;53.240;6.580;2022-11-04T11:41:58;7.20;;;1.20;;
56233;SDS011;42141;53.240;6.580;2022-11-04T11:44:54;7.88;;;1.08;;
56233;SDS011;42141;53.240;6.580;2022-11-04T11:50:10;5.95;;;1.00;;
56233;SDS011;42141;53.240;6.580;2022-11-04T11:52:44;3.50;;;0.70;;
56233;SDS011;42141;53.240;6.580;2022-11-04T11:57:51;4.35;;;0.68;;
56233;SDS011;42141;53.240;6.580;2022-11-04T12:00:50;4.00;;;0.50;;
56233;SDS011;42141;53.240;6.580;2022-11-04T12:03:31;2.22;;;0.63;;
56233;SDS011;42141;53.240;6.580;2022-11-04T12:06:24;10.23;;;3.28;;
56233;SDS011;42141;53.240;6.580;2022-11-04T12:12:32;8.55;;;0.98;;
56233;SDS011;42141;53.240;6.580;2022-11-04T12:15:21;3.35;;;0.52;;
56233;SDS011;42141;53.240;6.580;2022-11-04T12:20:45;5.47;;;0.60;;
56233;SDS011;42141;53.240;6.580;2022-11-04T12:40:39;5.38;;;0.73;;
56233;SDS011;42141;53.240;6.580;2022-11-04T12:46:18;2.72;;;0.43;;
56233;SDS011;42141;53.240;6.580;2022-11-04T12:54:49;6.50;;;0.97;;
56233;SDS011;42141;53.240;6.580;2022-11-04T13:05:17;7.30;;;0.75;;
56233;SDS011;42141;53.240;6.580;2022-11-04T13:08:39;5.88;;;1.05;;
56233;SDS011;42141;53.240;6.580;2022-11-04T13:13:48;3.88;;;0.63;;
56233;SDS011;42141;53.240;6.580;2022-11-04T13:16:33;2.67;;;0.50;;
56233;SDS011;42141;53.240;6.580;2022-11-04T13:19:02;7.47;;;0.60;;
56233;SDS011;42141;53.240;6.580;2022-11-04T13:21:34;5.60;;;0.90;;
56233;SDS011;42141;53.240;6.580;2022-11-04T13:24:10;6.23;;;0.70;;
56233;SDS011;42141;53.240;6.580;2022-11-04T13:26:58;6.65;;;0.98;;
56233;SDS011;42141;53.240;6.580;2022-11-04T13:29:28;6.28;;;1.63;;
56233;SDS011;42141;53.240;6.580;2022-11-04T13:34:58;5.35;;;0.70;;
56233;SDS011;42141;53.240;6.580;2022-11-04T13:40:20;8.10;;;0.90;;
56233;SDS011;42141;53.240;6.580;2022-11-04T13:45:52;7.03;;;0.80;;
56233;SDS011;42141;53.240;6.580;2022-11-04T13:48:22;9.20;;;1.20;;
56233;SDS011;42141;53.240;6.580;2022-11-04T13:51:06;5.90;;;0.98;;
56233;SDS011;42141;53.240;6.580;2022-11-04T13:56:40;3.45;;;0.82;;
56233;SDS011;42141;53.240;6.580;2022-11-04T14:01:40;7.55;;;1.00;;
56233;SDS011;42141;53.240;6.580;2022-11-04T14:06:56;6.10;;;0.77;;
56233;SDS011;42141;53.240;6.580;2022-11-04T14:19:58;8.15;;;0.75;;
56233;SDS011;42141;53.240;6.580;2022-11-04T14:22:35;7.10;;;1.42;;
56233;SDS011;42141;53.240;6.580;2022-11-04T14:25:21;3.20;;;0.90;;
56233;SDS011;42141;53.240;6.580;2022-11-04T14:30:36;15.10;;;1.40;;
56233;SDS011;42141;53.240;6.580;2022-11-04T14:33:07;9.48;;;0.85;;
56233;SDS011;42141;53.240;6.580;2022-11-04T14:35:48;6.93;;;0.85;;
56233;SDS011;42141;53.240;6.580;2022-11-04T14:38:20;6.15;;;0.85;;
56233;SDS011;42141;53.240;6.580;2022-11-04T14:43:44;11.68;;;1.17;;
56233;SDS011;42141;53.240;6.580;2022-11-04T14:46:12;9.05;;;0.70;;
56233;SDS011;42141;53.240;6.580;2022-11-04T14:48:45;11.27;;;1.85;;
56233;SDS011;42141;53.240;6.580;2022-11-04T14:53:51;9.25;;;1.00;;
56233;SDS011;42141;53.240;6.580;2022-11-04T14:59:04;5.43;;;0.77;;
56233;SDS011;42141;53.240;6.580;2022-11-04T15:01:44;8.77;;;0.88;;
56233;SDS011;42141;53.240;6.580;2022-11-04T15:04:17;9.05;;;0.93;;
56233;SDS011;42141;53.240;6.580;2022-11-04T15:06:52;7.65;;;0.90;;
56233;SDS011;42141;53.240;6.580;2022-11-04T15:09:23;11.32;;;0.80;;
56233;SDS011;42141;53.240;6.580;2022-11-04T15:14:55;8.40;;;0.85;;
56233;SDS011;42141;53.240;6.580;2022-11-04T15:17:25;8.00;;;0.80;;
56233;SDS011;42141;53.240;6.580;2022-11-04T15:19:58;14.38;;;1.27;;
56233;SDS011;42141;53.240;6.580;2022-11-04T15:22:29;11.43;;;1.25;;
56233;SDS011;42141;53.240;6.580;2022-11-04T15:24:55;8.13;;;0.90;;
56233;SDS011;42141;53.240;6.580;2022-11-04T15:27:27;13.32;;;1.08;;
56233;SDS011;42141;53.240;6.580;2022-11-04T15:32:19;9.05;;;1.60;;
56233;SDS011;42141;53.240;6.580;2022-11-04T15:34:45;8.80;;;1.10;;
56233;SDS011;42141;53.240;6.580;2022-11-04T15:37:12;7.90;;;1.00;;
56233;SDS011;42141;53.240;6.580;2022-11-04T15:39:39;14.20;;;2.03;;
56233;SDS011;42141;53.240;6.580;2022-11-04T15:42:10;10.88;;;1.30;;
56233;SDS011;42141;53.240;6.580;2022-11-04T15:48:23;9.82;;;1.38;;
56233;SDS011;42141;53.240;6.580;2022-11-04T15:53:48;12.35;;;1.42;;
56233;SDS011;42141;53.240;6.580;2022-11-04T15:56:22;6.90;;;1.05;;
56233;SDS011;42141;53.240;6.580;2022-11-04T15:58:51;7.38;;;1.00;;
56233;SDS011;42141;53.240;6.580;2022-11-04T16:01:18;7.05;;;1.00;;
56233;SDS011;42141;53.240;6.580;2022-11-04T16:03:52;7.03;;;1.33;;
56233;SDS011;42141;53.240;6.580;2022-11-04T16:09:16;6.43;;;0.83;;
56233;SDS011;42141;53.240;6.580;2022-11-04T16:14:30;10.30;;;1.40;;
56233;SDS011;42141;53.240;6.580;2022-11-04T16:16:56;10.55;;;1.45;;
56233;SDS011;42141;53.240;6.580;2022-11-04T16:19:23;9.38;;;1.42;;
56233;SDS011;42141;53.240;6.580;2022-11-04T16:22:02;16.23;;;1.77;;
56233;SDS011;42141;53.240;6.580;2022-11-04T16:24:34;5.88;;;1.33;;
56233;SDS011;42141;53.240;6.580;2022-11-04T16:27:08;11.90;;;1.55;;
56233;SDS011;42141;53.240;6.580;2022-11-04T16:29:35;8.88;;;2.63;;
56233;SDS011;42141;53.240;6.580;2022-11-04T16:32:24;12.45;;;1.30;;
56233;SDS011;42141;53.240;6.580;2022-11-04T16:34:55;8.85;;;2.08;;
56233;SDS011;42141;53.240;6.580;2022-11-04T16:37:23;12.40;;;1.33;;
56233;SDS011;42141;53.240;6.580;2022-11-04T16:39:50;9.77;;;1.42;;
56233;SDS011;42141;53.240;6.580;2022-11-04T16:42:16;7.55;;;1.02;;
56233;SDS011;42141;53.240;6.580;2022-11-04T16:44:46;8.05;;;2.10;;
56233;SDS011;42141;53.240;6.580;2022-11-04T16:47:13;15.45;;;4.65;;
56233;SDS011;42141;53.240;6.580;2022-11-04T16:49:39;13.65;;;3.70;;
56233;SDS011;42141;53.240;6.580;2022-11-04T16:52:08;15.00;;;2.53;;
56233;SDS011;42141;53.240;6.580;2022-11-04T16:54:38;4.53;;;1.08;;
56233;SDS011;42141;53.240;6.580;2022-11-04T16:57:04;9.95;;;2.80;;
56233;SDS011;42141;53.240;6.580;2022-11-04T16:59:35;11.98;;;2.95;;
56233;SDS011;42141;53.240;6.580;2022-11-04T17:02:10;11.55;;;2.65;;
56233;SDS011;42141;53.240;6.580;2022-11-04T17:07:11;19.45;;;8.35;;
56233;SDS011;42141;53.240;6.580;2022-11-04T17:09:39;16.63;;;6.70;;
56233;SDS011;42141;53.240;6.580;2022-11-04T17:12:04;14.48;;;5.35;;
56233;SDS011;42141;53.240;6.580;2022-11-04T17:14:30;13.23;;;4.13;;
56233;SDS011;42141;53.240;6.580;2022-11-04T17:16:56;14.85;;;2.40;;
56233;SDS011;42141;53.240;6.580;2022-11-04T17:19:21;15.25;;;2.28;;
56233;SDS011;42141;53.240;6.580;2022-11-04T17:21:47;14.90;;;3.05;;
56233;SDS011;42141;53.240;6.580;2022-11-04T17:24:13;7.43;;;2.30;;
56233;SDS011;42141;53.240;6.580;2022-11-04T17:26:39;19.55;;;3.08;;
56233;SDS011;42141;53.240;6.580;2022-11-04T17:29:04;11.57;;;2.13;;
56233;SDS011;42141;53.240;6.580;2022-11-04T17:31:30;16.00;;;3.88;;
56233;SDS011;42141;53.240;6.580;2022-11-04T17:33:56;10.77;;;4.00;;
56233;SDS011;42141;53.240;6.580;2022-11-04T17:36:28;12.45;;;3.03;;
56233;SDS011;42141;53.240;6.580;2022-11-04T17:38:54;11.73;;;3.70;;
56233;SDS011;42141;53.240;6.580;2022-11-04T17:41:20;10.75;;;4.45;;
56233;SDS011;42141;53.240;6.580;2022-11-04T17:44:04;12.20;;;2.58;;
56233;SDS011;42141;53.240;6.580;2022-11-04T17:46:31;20.95;;;3.42;;
56233;SDS011;42141;53.240;6.580;2022-11-04T17:51:44;12.88;;;1.95;;
56233;SDS011;42141;53.240;6.580;2022-11-04T17:54:12;10.45;;;2.15;;
56233;SDS011;42141;53.240;6.580;2022-11-04T17:56:42;16.80;;;3.15;;
56233;SDS011;42141;53.240;6.580;2022-11-04T17:59:12;11.55;;;2.47;;
56233;SDS011;42141;53.240;6.580;2022-11-04T18:01:42;12.55;;;2.83;;